Time;durP1;ratioP1;P1;durP2;ratioP2;P2;SDS_P1;SDS_P2;PMS_P1;PMS_P2;Temp;Humidity;BMP_temperature;BMP_pressure;BME280_temperature;BME280_humidity;BME280_pressure;Samples;Min_cycle;Max_cycle;Signal;HPM_P1;HPM_P2
2023/09/26 00:01:35;;;;;;;;;;;21.60;99.90;;;;;;5092263;28;19912;-68
2023/09/26 00:04:02;;;;;;;;;;;21.70;99.90;;;;;;5092193;28;19916;-70
2023/09/26 00:06:29;;;;;;;;;;;21.90;99.90;;;;;;5092473;28;19916;-67
2023/09/26 00:08:56;;;;;;;;;;;22.20;99.90;;;;;;5092170;28;19950;-69
2023/09/26 00:11:22;;;;;;;;;;;22.20;99.90;;;;;;5092350;28;20361;-72
2023/09/26 00:13:49;;;;;;;;;;;22.20;99.90;;;;;;5092449;28;19915;-71
2023/09/26 00:16:16;;;;;;;;;;;22.20;99.90;;;;;;5092296;28;19919;-71
2023/09/26 00:18:43;;;;;;;;;;;22.20;99.90;;;;;;5092408;28;19991;-73
2023/09/26 00:21:13;;;;;;;;;;;22.20;99.90;;;;;;5092041;28;19916;-71
2023/09/26 00:23:39;;;;;;;;;;;22.30;99.90;;;;;;5092192;28;19922;-68
2023/09/26 00:26:07;;;;;;;;;;;22.40;99.90;;;;;;5092271;28;20327;-70
2023/09/26 00:28:34;;;;;;;;;;;22.30;99.90;;;;;;5092222;28;19915;-70
2023/09/26 00:31:04;;;;;;;;;;;22.30;99.90;;;;;;5093328;28;20033;-72
2023/09/26 00:33:32;;;;;;;;;;;22.30;99.90;;;;;;5096019;28;19931;-69
2023/09/26 00:36:08;;;;;;;;;;;22.40;99.90;;;;;;5096209;28;19912;-68
2023/09/26 00:38:35;;;;;;;;;;;22.40;99.90;;;;;;5096591;28;19968;-70
2023/09/26 00:41:03;;;;;;;;;;;22.50;99.90;;;;;;5096364;28;19908;-67
2023/09/26 00:43:31;;;;;;;;;;;22.50;99.90;;;;;;5096372;28;19912;-71
2023/09/26 00:45:59;;;;;;;;;;;22.40;99.90;;;;;;5096398;28;20024;-70
2023/09/26 00:48:26;;;;;;;;;;;22.40;99.90;;;;;;5095884;28;20015;-69
2023/09/26 00:50:54;;;;;;;;;;;22.40;99.90;;;;;;5095985;28;19912;-67
2023/09/26 00:53:24;;;;;;;;;;;22.50;99.90;;;;;;5096518;28;20258;-67
2023/09/26 00:55:55;;;;;;;;;;;22.60;99.90;;;;;;5096445;28;19908;-68
2023/09/26 00:58:24;;;;;;;;;;;22.70;99.90;;;;;;5096159;28;19965;-69
2023/09/26 01:00:53;;;;;;;;;;;22.70;99.90;;;;;;5095707;28;20372;-70
2023/09/26 01:03:21;;;;;;;;;;;22.80;99.90;;;;;;5095680;28;20030;-69
2023/09/26 01:05:47;;;;;;;;;;;22.80;99.90;;;;;;5094881;28;19920;-69
2023/09/26 01:08:14;;;;;;;;;;;22.80;99.90;;;;;;5087721;28;19919;-68
2023/09/26 01:10:41;;;;;;;;;;;22.80;99.90;;;;;;5088401;28;19937;-72
2023/09/26 01:13:08;;;;;;;;;;;22.80;99.90;;;;;;5093408;28;19957;-69
2023/09/26 01:15:40;;;;;;;;;;;22.80;99.90;;;;;;5095463;28;19908;-72
2023/09/26 01:18:08;;;;;;;;;;;22.70;99.90;;;;;;5111838;28;19912;-68
2023/09/26 01:20:34;;;;;;;;;;;22.70;99.90;;;;;;5103493;28;20395;-66
2023/09/26 01:23:06;;;;;;;;;;;22.70;99.90;;;;;;5095536;28;19964;-70
2023/09/26 01:25:36;;;;;;;;;;;22.70;99.90;;;;;;5095460;28;19916;-69
2023/09/26 01:28:07;;;;;;;;;;;22.60;99.90;;;;;;5095074;28;19942;-72
2023/09/26 01:30:37;;;;;;;;;;;22.50;99.90;;;;;;5095226;28;19915;-66
2023/09/26 01:33:04;;;;;;;;;;;22.60;99.90;;;;;;5095560;28;19912;-68
2023/09/26 01:35:31;;;;;;;;;;;22.80;99.90;;;;;;5095320;28;20371;-69
2023/09/26 01:37:58;;;;;;;;;;;22.80;99.90;;;;;;5095372;28;19922;-69
2023/09/26 01:40:25;;;;;;;;;;;23.00;99.90;;;;;;5088849;28;19915;-68
2023/09/26 01:42:51;;;;;;;;;;;22.90;99.90;;;;;;5093952;28;20398;-68
2023/09/26 01:45:18;;;;;;;;;;;22.90;99.90;;;;;;5094920;28;20015;-67
2023/09/26 01:47:45;;;;;;;;;;;22.80;99.90;;;;;;5094880;28;19920;-70
2023/09/26 01:50:12;;;;;;;;;;;22.80;99.90;;;;;;5094803;28;20011;-68
2023/09/26 01:52:38;;;;;;;;;;;22.70;99.90;;;;;;5095279;28;19969;-73
2023/09/26 01:55:06;;;;;;;;;;;22.50;99.90;;;;;;5094961;28;19908;-75
2023/09/26 01:57:33;;;;;;;;;;;22.50;99.90;;;;;;5094878;28;19951;-68
2023/09/26 02:00:12;;;;;;;;;;;22.50;99.90;;;;;;5093443;28;20376;-68
2023/09/26 02:02:42;;;;;;;;;;;22.70;99.90;;;;;;5094617;28;19916;-67
2023/09/26 02:05:10;;;;;;;;;;;22.80;99.90;;;;;;5094694;28;20007;-70
2023/09/26 02:07:37;;;;;;;;;;;22.70;99.90;;;;;;5093936;28;19951;-73
2023/09/26 02:10:04;;;;;;;;;;;22.60;99.90;;;;;;5094228;28;19908;-67
2023/09/26 02:12:35;;;;;;;;;;;22.50;99.90;;;;;;5094630;28;19912;-73
2023/09/26 02:15:04;;;;;;;;;;;22.30;99.90;;;;;;5094639;28;19908;-72
2023/09/26 02:17:33;;;;;;;;;;;22.30;99.90;;;;;;5084175;28;19938;-72
2023/09/26 02:20:00;;;;;;;;;;;22.20;99.90;;;;;;5092357;28;19943;-70
2023/09/26 02:22:27;;;;;;;;;;;22.20;99.90;;;;;;5092535;28;20014;-69
2023/09/26 02:24:54;;;;;;;;;;;22.00;99.90;;;;;;5092918;28;19916;-71
2023/09/26 02:27:20;;;;;;;;;;;21.80;99.90;;;;;;5094015;28;19920;-71
2023/09/26 02:29:47;;;;;;;;;;;21.80;99.90;;;;;;5093557;28;19919;-73
2023/09/26 02:32:13;;;;;;;;;;;21.70;99.90;;;;;;5093947;28;19919;-71
2023/09/26 02:34:40;;;;;;;;;;;21.70;99.90;;;;;;5093785;28;19912;-71
2023/09/26 02:37:07;;;;;;;;;;;21.70;99.90;;;;;;5094128;28;19912;-68
2023/09/26 02:39:34;;;;;;;;;;;21.70;99.90;;;;;;5093546;28;20361;-70
2023/09/26 02:42:00;;;;;;;;;;;21.80;99.90;;;;;;5091847;28;19912;-69
2023/09/26 02:44:27;;;;;;;;;;;21.80;99.90;;;;;;5091769;28;19916;-67
2023/09/26 02:46:54;;;;;;;;;;;21.80;99.90;;;;;;5091331;28;19908;-71
2023/09/26 02:49:20;;;;;;;;;;;21.70;99.90;;;;;;5080659;28;19921;-71
2023/09/26 02:51:47;;;;;;;;;;;21.60;99.90;;;;;;5089405;28;20253;-70
2023/09/26 02:54:14;;;;;;;;;;;21.60;99.90;;;;;;5081393;28;19913;-70
2023/09/26 02:56:40;;;;;;;;;;;21.70;99.90;;;;;;5087525;28;19916;-71
2023/09/26 02:59:07;;;;;;;;;;;21.80;99.90;;;;;;5091664;28;19963;-71
2023/09/26 03:01:34;;;;;;;;;;;22.70;99.90;;;;;;5081245;28;20404;-70
2023/09/26 03:04:00;;;;;;;;;;;23.90;99.90;;;;;;5092898;28;20418;-69
2023/09/26 03:06:27;;;;;;;;;;;24.80;98.70;;;;;;5093629;28;19912;-74
2023/09/26 03:08:54;;;;;;;;;;;25.00;97.00;;;;;;5090651;28;19913;-72
2023/09/26 03:11:20;;;;;;;;;;;24.90;96.30;;;;;;5091618;28;20361;-71
2023/09/26 03:13:47;;;;;;;;;;;24.70;96.30;;;;;;5091311;28;19916;-69
2023/09/26 03:16:14;;;;;;;;;;;24.80;96.50;;;;;;5092507;28;20365;-70
2023/09/26 03:18:41;;;;;;;;;;;24.70;96.40;;;;;;5089287;28;19916;-73
2023/09/26 03:21:08;;;;;;;;;;;24.40;96.40;;;;;;5091588;28;20330;-70
2023/09/26 03:23:35;;;;;;;;;;;24.00;96.00;;;;;;5092450;28;19968;-73
2023/09/26 03:26:02;;;;;;;;;;;23.60;97.20;;;;;;5092568;28;20003;-63
2023/09/26 03:28:28;;;;;;;;;;;23.50;97.10;;;;;;5092317;28;20345;-70
2023/09/26 03:30:55;;;;;;;;;;;23.30;96.90;;;;;;5092594;28;19908;-72
2023/09/26 03:33:22;;;;;;;;;;;23.00;98.20;;;;;;5090497;28;19927;-70
2023/09/26 03:35:49;;;;;;;;;;;22.90;99.00;;;;;;5089730;28;19912;-67
2023/09/26 03:38:16;;;;;;;;;;;22.90;98.90;;;;;;5088892;28;20375;-70
2023/09/26 03:40:42;;;;;;;;;;;22.90;98.80;;;;;;5092012;28;19992;-70
2023/09/26 03:43:09;;;;;;;;;;;22.80;98.80;;;;;;5092060;28;19912;-69
2023/09/26 03:45:35;;;;;;;;;;;22.70;99.00;;;;;;5092112;28;19923;-70
2023/09/26 03:48:02;;;;;;;;;;;22.70;99.00;;;;;;5091579;28;20385;-69
2023/09/26 03:50:29;;;;;;;;;;;22.70;98.90;;;;;;5092099;28;20000;-71
2023/09/26 03:52:55;;;;;;;;;;;22.70;98.60;;;;;;5092759;28;20334;-70
2023/09/26 03:55:23;;;;;;;;;;;22.90;98.40;;;;;;5092666;28;19994;-71
2023/09/26 03:57:49;;;;;;;;;;;23.00;98.10;;;;;;5092811;28;19912;-66
2023/09/26 04:00:18;;;;;;;;;;;23.20;98.20;;;;;;5092737;28;19961;-68
2023/09/26 04:02:45;;;;;;;;;;;23.30;98.30;;;;;;5092514;28;19967;-67
2023/09/26 04:05:11;;;;;;;;;;;23.20;98.60;;;;;;5091829;28;19920;-69
2023/09/26 04:07:38;;;;;;;;;;;23.30;98.80;;;;;;5092511;28;19912;-69
2023/09/26 04:10:05;;;;;;;;;;;23.60;97.60;;;;;;5092833;28;19994;-68
2023/09/26 04:12:32;;;;;;;;;;;24.30;97.20;;;;;;5096800;28;20273;-67
2023/09/26 04:14:58;;;;;;;;;;;25.10;94.70;;;;;;5112772;28;19921;-66
2023/09/26 04:17:25;;;;;;;;;;;26.10;93.00;;;;;;5105611;28;19912;-69
2023/09/26 04:19:52;;;;;;;;;;;26.90;92.10;;;;;;5092261;28;20326;-67
2023/09/26 04:22:19;;;;;;;;;;;28.60;90.10;;;;;;5094352;28;19969;-70
2023/09/26 04:24:45;;;;;;;;;;;30.70;85.10;;;;;;5112858;28;19916;-71
2023/09/26 04:27:12;;;;;;;;;;;31.90;79.60;;;;;;5106982;28;19969;-70
2023/09/26 04:29:38;;;;;;;;;;;33.10;75.00;;;;;;5092155;28;19935;-70
2023/09/26 04:32:05;;;;;;;;;;;33.10;73.60;;;;;;5092282;28;19915;-68
2023/09/26 04:34:32;;;;;;;;;;;33.70;71.80;;;;;;5112570;28;19911;-70
2023/09/26 04:36:58;;;;;;;;;;;34.00;71.10;;;;;;5109188;28;19908;-68
2023/09/26 04:39:25;;;;;;;;;;;34.80;69.90;;;;;;5092326;28;19916;-69
2023/09/26 04:41:52;;;;;;;;;;;33.60;69.30;;;;;;5092462;28;19909;-70
2023/09/26 04:44:18;;;;;;;;;;;32.80;71.60;;;;;;5090902;28;19920;-68
2023/09/26 04:46:45;;;;;;;;;;;33.50;70.50;;;;;;5092020;28;20450;-67
2023/09/26 04:49:12;;;;;;;;;;;34.30;68.80;;;;;;5092103;28;20510;-69
2023/09/26 04:51:38;;;;;;;;;;;34.90;66.40;;;;;;5092079;28;19908;-67
2023/09/26 04:54:05;;;;;;;;;;;34.70;66.20;;;;;;5092034;28;19912;-66
2023/09/26 04:56:31;;;;;;;;;;;35.40;64.90;;;;;;5091957;28;20266;-69
2023/09/26 04:58:58;;;;;;;;;;;36.10;63.20;;;;;;5091661;28;19920;-69
2023/09/26 05:01:26;;;;;;;;;;;35.90;63.00;;;;;;5092013;28;19931;-69
2023/09/26 05:03:52;;;;;;;;;;;35.80;62.70;;;;;;5092014;28;19916;-66
2023/09/26 05:06:19;;;;;;;;;;;35.60;63.10;;;;;;5090567;28;20019;-69
2023/09/26 05:08:46;;;;;;;;;;;35.30;63.30;;;;;;5091677;28;19912;-71
2023/09/26 05:11:15;;;;;;;;;;;35.10;63.10;;;;;;5091669;28;20006;-70
2023/09/26 05:13:45;;;;;;;;;;;34.40;63.90;;;;;;5092286;28;20897;-68
2023/09/26 05:16:13;;;;;;;;;;;34.40;64.90;;;;;;5092005;28;19908;-70
2023/09/26 05:18:40;;;;;;;;;;;34.90;64.20;;;;;;5095606;28;19913;-68
2023/09/26 05:21:07;;;;;;;;;;;34.90;62.90;;;;;;5086899;28;19908;-69
2023/09/26 05:23:33;;;;;;;;;;;34.80;63.20;;;;;;5104420;28;19916;-66
2023/09/26 05:26:07;;;;;;;;;;;34.90;63.80;;;;;;5115935;28;20305;-66
2023/09/26 05:28:33;;;;;;;;;;;35.00;62.90;;;;;;5099221;28;19951;-71
2023/09/26 05:31:00;;;;;;;;;;;35.00;62.70;;;;;;5095310;28;19908;-71
2023/09/26 05:33:26;;;;;;;;;;;35.00;62.40;;;;;;5095370;28;19973;-70
2023/09/26 05:35:55;;;;;;;;;;;35.10;62.30;;;;;;5094144;28;20330;-71
2023/09/26 05:38:22;;;;;;;;;;;34.90;62.30;;;;;;5090223;28;20258;-71
2023/09/26 05:40:50;;;;;;;;;;;34.90;60.70;;;;;;5074967;28;20368;-69
2023/09/26 05:43:17;;;;;;;;;;;35.00;62.50;;;;;;5080956;28;19912;-71
2023/09/26 05:45:43;;;;;;;;;;;35.50;60.80;;;;;;5095321;28;19912;-71
2023/09/26 05:48:10;;;;;;;;;;;35.50;60.50;;;;;;5094777;28;19927;-71
2023/09/26 05:50:37;;;;;;;;;;;33.80;61.70;;;;;;5094522;28;20547;-71
2023/09/26 05:53:04;;;;;;;;;;;32.00;63.50;;;;;;5094823;28;20365;-71
2023/09/26 05:55:31;;;;;;;;;;;30.70;66.30;;;;;;5095012;28;19943;-70
2023/09/26 05:57:58;;;;;;;;;;;30.10;66.40;;;;;;5095142;28;19970;-71
2023/09/26 06:00:24;;;;;;;;;;;30.10;66.60;;;;;;5094130;28;19912;-70
2023/09/26 06:02:52;;;;;;;;;;;30.00;66.70;;;;;;5094258;28;19999;-67
2023/09/26 06:05:19;;;;;;;;;;;29.70;67.10;;;;;;5094333;28;20273;-69
2023/09/26 06:07:46;;;;;;;;;;;29.30;68.50;;;;;;5094343;28;20335;-70
2023/09/26 06:10:12;;;;;;;;;;;28.70;70.30;;;;;;5093902;28;19961;-69
2023/09/26 06:12:39;;;;;;;;;;;27.80;73.10;;;;;;5094176;28;20357;-70
2023/09/26 06:15:06;;;;;;;;;;;26.90;74.50;;;;;;5094259;28;19991;-70
2023/09/26 06:17:34;;;;;;;;;;;26.00;77.10;;;;;;5094192;28;19908;-67
2023/09/26 06:20:00;;;;;;;;;;;25.40;79.20;;;;;;5093956;28;19947;-70
2023/09/26 06:22:27;;;;;;;;;;;24.70;80.30;;;;;;5094135;28;20353;-70
2023/09/26 06:24:53;;;;;;;;;;;24.10;81.90;;;;;;5094001;28;19969;-70
2023/09/26 06:27:20;;;;;;;;;;;23.60;84.20;;;;;;5094114;28;19908;-66
2023/09/26 06:29:47;;;;;;;;;;;23.30;86.90;;;;;;5093527;28;20404;-68
2023/09/26 06:32:14;;;;;;;;;;;22.90;89.20;;;;;;5093841;28;20120;-70
2023/09/26 06:34:40;;;;;;;;;;;22.60;90.50;;;;;;5092265;28;19912;-70
2023/09/26 06:37:07;;;;;;;;;;;22.30;91.20;;;;;;5074322;28;19909;-65
2023/09/26 06:39:33;;;;;;;;;;;22.10;92.30;;;;;;5084187;28;19911;-68
2023/09/26 06:42:00;;;;;;;;;;;22.00;92.80;;;;;;5093356;28;19908;-68
2023/09/26 06:44:28;;;;;;;;;;;21.80;93.30;;;;;;5094194;28;20368;-67
2023/09/26 06:46:55;;;;;;;;;;;21.70;94.30;;;;;;5093477;28;19961;-69
2023/09/26 06:49:22;;;;;;;;;;;21.60;94.60;;;;;;5093557;28;20019;-67
2023/09/26 06:51:48;;;;;;;;;;;21.50;95.00;;;;;;5094031;28;20103;-67
2023/09/26 06:54:15;;;;;;;;;;;21.40;95.60;;;;;;5093754;28;19912;-67
2023/09/26 06:56:41;;;;;;;;;;;21.30;96.00;;;;;;5093913;28;19908;-72
2023/09/26 06:59:08;;;;;;;;;;;21.30;96.80;;;;;;5093371;28;19912;-71
2023/09/26 07:01:35;;;;;;;;;;;21.20;97.10;;;;;;5093594;28;19908;-70
2023/09/26 07:04:01;;;;;;;;;;;21.00;97.70;;;;;;5093717;28;20010;-71
2023/09/26 07:06:28;;;;;;;;;;;21.10;97.60;;;;;;5093627;28;19916;-70
2023/09/26 07:08:57;;;;;;;;;;;21.00;98.20;;;;;;5093057;28;19966;-71
2023/09/26 07:11:24;;;;;;;;;;;20.90;98.90;;;;;;5093304;28;19915;-66
2023/09/26 07:13:50;;;;;;;;;;;20.90;99.20;;;;;;5093466;28;19912;-68
2023/09/26 07:16:17;;;;;;;;;;;20.90;99.90;;;;;;5081024;28;19961;-67
2023/09/26 07:18:44;;;;;;;;;;;20.80;99.90;;;;;;5089630;28;20369;-65
2023/09/26 07:21:11;;;;;;;;;;;20.80;99.90;;;;;;5091900;28;20045;-65
2023/09/26 07:23:37;;;;;;;;;;;20.70;99.90;;;;;;5091364;28;19920;-68
2023/09/26 07:26:08;;;;;;;;;;;20.60;99.90;;;;;;5091440;28;19983;-66
2023/09/26 07:28:35;;;;;;;;;;;20.60;99.90;;;;;;5091722;28;19908;-70
2023/09/26 07:31:04;;;;;;;;;;;20.50;99.90;;;;;;5091833;28;19917;-69
2023/09/26 07:33:31;;;;;;;;;;;20.40;99.90;;;;;;5090785;28;19930;-68
2023/09/26 07:35:57;;;;;;;;;;;20.40;99.90;;;;;;5092097;28;19908;-70
2023/09/26 07:38:24;;;;;;;;;;;20.40;99.90;;;;;;5087598;28;19912;-67
2023/09/26 07:40:51;;;;;;;;;;;20.30;99.90;;;;;;5090064;28;19947;-68
2023/09/26 07:43:17;;;;;;;;;;;20.30;99.90;;;;;;5082951;28;19912;-69
2023/09/26 07:45:44;;;;;;;;;;;20.30;99.90;;;;;;5085133;28;19927;-67
2023/09/26 07:48:11;;;;;;;;;;;20.20;99.90;;;;;;5082063;28;19970;-68
2023/09/26 07:50:37;;;;;;;;;;;20.20;99.90;;;;;;5092179;28;19912;-68
2023/09/26 07:53:04;;;;;;;;;;;20.10;99.90;;;;;;5092103;28;20483;-67
2023/09/26 07:55:31;;;;;;;;;;;20.10;99.90;;;;;;5087428;28;19917;-66
2023/09/26 07:57:57;;;;;;;;;;;20.00;99.90;;;;;;5083525;28;19960;-68
2023/09/26 08:00:24;;;;;;;;;;;19.90;99.90;;;;;;5080822;28;19920;-69
2023/09/26 08:02:51;;;;;;;;;;;19.90;99.90;;;;;;5071799;28;20262;-69
2023/09/26 08:05:17;;;;;;;;;;;19.80;99.90;;;;;;5096781;28;19920;-68
2023/09/26 08:07:44;;;;;;;;;;;19.80;99.90;;;;;;5078174;28;20323;-68
2023/09/26 08:10:11;;;;;;;;;;;19.80;99.90;;;;;;5089573;28;20011;-69
2023/09/26 08:12:39;;;;;;;;;;;19.80;99.90;;;;;;5076093;28;19924;-68
2023/09/26 08:15:07;;;;;;;;;;;19.80;99.90;;;;;;5082946;28;20347;-67
2023/09/26 08:17:34;;;;;;;;;;;19.70;99.90;;;;;;5070612;28;19999;-68
2023/09/26 08:20:01;;;;;;;;;;;19.70;99.90;;;;;;5091209;28;20011;-67
2023/09/26 08:22:27;;;;;;;;;;;19.70;99.90;;;;;;5091583;28;19947;-66
2023/09/26 08:24:54;;;;;;;;;;;19.60;99.90;;;;;;5083765;28;19920;-70
2023/09/26 08:27:21;;;;;;;;;;;19.50;99.90;;;;;;5091471;28;20353;-67
2023/09/26 08:29:48;;;;;;;;;;;19.50;99.90;;;;;;5091170;28;20024;-66
2023/09/26 08:32:14;;;;;;;;;;;19.50;99.90;;;;;;5091325;28;19962;-71
2023/09/26 08:34:41;;;;;;;;;;;19.50;99.90;;;;;;5090695;28;19980;-69
2023/09/26 08:37:08;;;;;;;;;;;19.50;99.90;;;;;;5086273;28;19934;-69
2023/09/26 08:39:34;;;;;;;;;;;19.60;99.90;;;;;;5082228;28;20281;-73
2023/09/26 08:42:03;;;;;;;;;;;19.60;99.90;;;;;;5086721;28;19913;-67
2023/09/26 08:44:29;;;;;;;;;;;19.60;99.90;;;;;;5077997;28;19920;-66
2023/09/26 08:46:57;;;;;;;;;;;19.60;99.90;;;;;;5074646;28;19913;-69
2023/09/26 08:49:24;;;;;;;;;;;19.60;99.90;;;;;;5082338;28;19921;-66
2023/09/26 08:51:50;;;;;;;;;;;19.50;99.90;;;;;;5081292;28;20010;-69
2023/09/26 08:54:17;;;;;;;;;;;19.50;99.90;;;;;;5084934;28;19978;-70
2023/09/26 08:56:45;;;;;;;;;;;19.50;99.90;;;;;;5094928;28;19947;-68
2023/09/26 08:59:11;;;;;;;;;;;19.40;99.90;;;;;;5094634;28;20287;-67
2023/09/26 09:01:38;;;;;;;;;;;19.30;99.90;;;;;;5086638;28;19909;-71
2023/09/26 09:04:05;;;;;;;;;;;19.40;99.90;;;;;;5075935;28;19968;-69
2023/09/26 09:06:31;;;;;;;;;;;19.40;99.90;;;;;;5088878;28;19919;-69
2023/09/26 09:09:09;;;;;;;;;;;19.50;99.90;;;;;;5087706;28;19912;-68
2023/09/26 09:11:35;;;;;;;;;;;19.50;99.90;;;;;;5078430;28;19974;-68
2023/09/26 09:14:02;;;;;;;;;;;19.50;99.90;;;;;;5093998;28;19934;-66
2023/09/26 09:16:28;;;;;;;;;;;19.30;99.90;;;;;;5094156;28;19924;-68
2023/09/26 09:18:58;;;;;;;;;;;19.20;99.90;;;;;;5087343;28;19912;-67
2023/09/26 09:21:25;;;;;;;;;;;19.30;99.90;;;;;;5093239;28;19916;-65
2023/09/26 09:23:52;;;;;;;;;;;19.30;99.90;;;;;;5094301;28;19912;-70
2023/09/26 09:26:21;;;;;;;;;;;19.30;99.90;;;;;;5092503;28;19927;-67
2023/09/26 09:28:49;;;;;;;;;;;19.30;99.90;;;;;;5093903;28;19912;-67
2023/09/26 09:31:16;;;;;;;;;;;19.30;99.90;;;;;;5077502;28;19971;-67
2023/09/26 09:33:46;;;;;;;;;;;19.20;99.90;;;;;;5086687;28;19912;-67
2023/09/26 09:36:13;;;;;;;;;;;19.10;99.90;;;;;;5094032;28;19919;-69
2023/09/26 09:38:40;;;;;;;;;;;19.10;99.90;;;;;;5093529;28;19912;-66
2023/09/26 09:41:07;;;;;;;;;;;19.00;99.90;;;;;;5083853;28;20297;-69
2023/09/26 09:43:34;;;;;;;;;;;18.90;99.90;;;;;;5079849;28;19920;-68
2023/09/26 09:46:04;;;;;;;;;;;18.70;99.90;;;;;;5085742;28;20306;-69
2023/09/26 09:48:33;;;;;;;;;;;18.70;99.90;;;;;;5077058;28;19980;-70
2023/09/26 09:51:03;;;;;;;;;;;18.60;99.90;;;;;;5092860;28;19935;-69
2023/09/26 09:53:33;;;;;;;;;;;18.50;99.90;;;;;;5094896;28;19916;-68
2023/09/26 09:56:02;;;;;;;;;;;18.50;99.90;;;;;;5094753;28;19912;-71
2023/09/26 09:58:30;;;;;;;;;;;18.50;99.90;;;;;;5082808;28;20011;-69
2023/09/26 10:00:57;;;;;;;;;;;18.60;99.90;;;;;;5092817;28;19912;-70
2023/09/26 10:03:24;;;;;;;;;;;18.50;99.90;;;;;;5084240;28;20365;-70
2023/09/26 10:05:51;;;;;;;;;;;18.60;99.90;;;;;;5076045;28;19927;-69
2023/09/26 10:08:18;;;;;;;;;;;18.50;99.90;;;;;;5076346;28;20273;-68
2023/09/26 10:10:45;;;;;;;;;;;18.50;99.90;;;;;;5094128;28;20354;-69
2023/09/26 10:13:12;;;;;;;;;;;18.60;99.90;;;;;;5088475;28;20284;-72
2023/09/26 10:15:57;;;;;;;;;;;18.50;99.90;;;;;;5084401;28;20574;-70
2023/09/26 10:18:24;;;;;;;;;;;18.50;99.90;;;;;;5077647;28;19912;-69
2023/09/26 10:20:51;;;;;;;;;;;18.50;99.90;;;;;;5092098;28;19963;-68
2023/09/26 10:23:18;;;;;;;;;;;18.60;99.90;;;;;;5073999;28;20258;-70
2023/09/26 10:25:45;;;;;;;;;;;18.60;99.90;;;;;;5096151;28;19919;-68
2023/09/26 10:28:11;;;;;;;;;;;18.60;99.90;;;;;;5112751;28;20003;-69
2023/09/26 10:30:47;;;;;;;;;;;18.50;99.90;;;;;;5093753;28;20002;-67
2023/09/26 10:33:14;;;;;;;;;;;18.40;99.90;;;;;;5086371;28;20281;-70
2023/09/26 10:35:44;;;;;;;;;;;18.40;99.90;;;;;;5083185;28;19912;-71
2023/09/26 10:38:16;;;;;;;;;;;18.40;99.90;;;;;;5093682;28;19912;-71
2023/09/26 10:40:43;;;;;;;;;;;18.40;99.90;;;;;;5094113;28;19919;-71
2023/09/26 10:43:10;;;;;;;;;;;18.40;99.90;;;;;;5093956;28;19908;-70
2023/09/26 10:45:36;;;;;;;;;;;18.40;99.90;;;;;;5091595;28;19920;-69
2023/09/26 10:48:07;;;;;;;;;;;18.40;99.90;;;;;;5083313;28;19920;-68
2023/09/26 10:50:33;;;;;;;;;;;18.50;99.90;;;;;;5093660;28;19948;-68
2023/09/26 10:53:00;;;;;;;;;;;18.50;99.90;;;;;;5093778;28;19908;-70
2023/09/26 10:55:27;;;;;;;;;;;18.50;99.90;;;;;;5093912;28;19913;-69
2023/09/26 10:57:54;;;;;;;;;;;18.40;99.90;;;;;;5083965;28;19912;-71
2023/09/26 11:00:20;;;;;;;;;;;18.30;99.90;;;;;;5092074;28;19935;-70
2023/09/26 11:02:50;;;;;;;;;;;18.30;99.90;;;;;;5092250;28;19915;-69
2023/09/26 11:05:16;;;;;;;;;;;18.20;99.90;;;;;;5093270;28;20505;-72
2023/09/26 11:07:47;;;;;;;;;;;18.10;99.90;;;;;;5076428;28;19912;-71
2023/09/26 11:10:14;;;;;;;;;;;18.10;99.90;;;;;;5089190;28;19912;-71
2023/09/26 11:12:41;;;;;;;;;;;18.10;99.90;;;;;;5091281;28;19908;-71
2023/09/26 11:15:08;;;;;;;;;;;18.10;99.90;;;;;;5072869;28;20296;-71
2023/09/26 11:17:36;;;;;;;;;;;18.20;99.90;;;;;;5073087;28;20007;-68
2023/09/26 11:20:06;;;;;;;;;;;18.20;99.90;;;;;;5073216;28;20462;-73
2023/09/26 11:22:48;;;;;;;;;;;18.30;99.90;;;;;;5073331;28;19915;-68
2023/09/26 11:25:15;;;;;;;;;;;18.30;99.90;;;;;;5072994;28;20424;-69
2023/09/26 11:27:43;;;;;;;;;;;18.20;99.90;;;;;;5085272;28;19916;-69
2023/09/26 11:30:13;;;;;;;;;;;18.20;99.90;;;;;;5092685;28;20368;-70
2023/09/26 11:32:46;;;;;;;;;;;18.20;99.90;;;;;;5093024;28;19991;-68
2023/09/26 11:35:13;;;;;;;;;;;18.20;99.90;;;;;;5093315;28;19941;-69
2023/09/26 11:37:40;;;;;;;;;;;18.20;99.90;;;;;;5093054;28;19908;-68
2023/09/26 11:40:11;;;;;;;;;;;18.20;99.90;;;;;;5092361;28;20485;-68
2023/09/26 11:42:41;;;;;;;;;;;18.20;99.90;;;;;;5088574;28;19965;-67
2023/09/26 11:45:08;;;;;;;;;;;18.20;99.90;;;;;;5092131;28;20388;-68
2023/09/26 11:47:35;;;;;;;;;;;18.20;99.90;;;;;;5092437;28;19920;-68
2023/09/26 11:50:02;;;;;;;;;;;18.10;99.90;;;;;;5092387;28;19912;-68
2023/09/26 11:52:29;;;;;;;;;;;18.20;99.90;;;;;;5090294;28;19938;-68
2023/09/26 11:54:56;;;;;;;;;;;18.10;99.90;;;;;;5092345;28;19908;-67
2023/09/26 11:57:22;;;;;;;;;;;18.10;99.90;;;;;;5089373;28;20285;-69
2023/09/26 11:59:49;;;;;;;;;;;18.10;99.90;;;;;;5088880;28;19923;-69
2023/09/26 12:02:16;;;;;;;;;;;18.20;99.90;;;;;;5092479;28;20280;-71
2023/09/26 12:04:43;;;;;;;;;;;18.20;99.90;;;;;;5090770;28;19942;-71
2023/09/26 12:07:09;;;;;;;;;;;18.20;99.90;;;;;;5091171;28;19916;-70
2023/09/26 12:09:36;;;;;;;;;;;18.20;99.90;;;;;;5092134;28;19908;-69
2023/09/26 12:12:02;;;;;;;;;;;18.20;99.90;;;;;;5091165;28;19967;-71
2023/09/26 12:14:29;;;;;;;;;;;18.30;99.90;;;;;;5087477;28;20249;-69
2023/09/26 12:16:56;;;;;;;;;;;18.30;99.90;;;;;;5092196;28;19915;-69
2023/09/26 12:19:23;;;;;;;;;;;18.30;99.90;;;;;;5091095;28;19908;-71
2023/09/26 12:21:50;;;;;;;;;;;18.40;99.90;;;;;;5087713;28;19927;-68
2023/09/26 12:24:16;;;;;;;;;;;18.40;99.90;;;;;;5086120;28;20296;-69
2023/09/26 12:26:46;;;;;;;;;;;18.30;99.90;;;;;;5073494;28;19916;-67
2023/09/26 12:29:14;;;;;;;;;;;18.30;99.90;;;;;;5088715;28;19931;-67
2023/09/26 12:31:44;;;;;;;;;;;18.30;99.90;;;;;;5096687;28;20353;-69
2023/09/26 12:34:13;;;;;;;;;;;18.30;99.90;;;;;;5091195;28;19920;-69
2023/09/26 12:36:39;;;;;;;;;;;18.30;99.90;;;;;;5076071;28;19917;-70
2023/09/26 12:39:07;;;;;;;;;;;18.30;99.90;;;;;;5089070;28;19912;-70
2023/09/26 12:41:34;;;;;;;;;;;18.30;99.90;;;;;;5096537;28;19912;-69
2023/09/26 12:44:00;;;;;;;;;;;18.30;99.90;;;;;;5096714;28;19919;-68
2023/09/26 12:46:27;;;;;;;;;;;18.30;99.90;;;;;;5090577;28;19952;-69
2023/09/26 12:48:54;;;;;;;;;;;18.20;99.90;;;;;;5082817;28;19920;-68
2023/09/26 12:51:20;;;;;;;;;;;18.20;99.90;;;;;;5074384;28;19918;-67
2023/09/26 12:53:47;;;;;;;;;;;18.30;99.90;;;;;;5081701;28;19954;-68
2023/09/26 12:56:14;;;;;;;;;;;18.20;99.90;;;;;;5096408;28;20369;-69
2023/09/26 12:58:40;;;;;;;;;;;18.20;99.90;;;;;;5082752;28;19950;-68
2023/09/26 13:01:07;;;;;;;;;;;18.10;99.90;;;;;;5076208;28;19944;-68
2023/09/26 13:03:34;;;;;;;;;;;18.20;99.90;;;;;;5075881;28;19915;-69
2023/09/26 13:06:00;;;;;;;;;;;18.10;99.90;;;;;;5075982;28;19916;-68
2023/09/26 13:08:27;;;;;;;;;;;18.00;99.90;;;;;;5075812;28;19917;-68
2023/09/26 13:10:53;;;;;;;;;;;18.00;99.90;;;;;;5089915;28;19919;-68
2023/09/26 13:13:20;;;;;;;;;;;17.90;99.90;;;;;;5094728;28;19908;-70
2023/09/26 13:15:47;;;;;;;;;;;18.00;99.90;;;;;;5081697;28;19913;-68
2023/09/26 13:18:13;;;;;;;;;;;18.00;99.90;;;;;;5075692;28;19912;-68
2023/09/26 13:20:40;;;;;;;;;;;18.00;99.90;;;;;;5075636;28;19908;-71
2023/09/26 13:23:06;;;;;;;;;;;17.90;99.90;;;;;;5091609;28;19919;-68
2023/09/26 13:25:34;;;;;;;;;;;17.90;99.90;;;;;;5095821;28;19978;-66
2023/09/26 13:28:01;;;;;;;;;;;17.90;99.90;;;;;;5095580;28;20010;-68
2023/09/26 13:30:28;;;;;;;;;;;17.90;99.90;;;;;;5086034;28;20473;-68
2023/09/26 13:32:56;;;;;;;;;;;17.90;99.90;;;;;;5090188;28;19930;-67
2023/09/26 13:35:25;;;;;;;;;;;17.90;99.90;;;;;;5095644;28;19908;-69
2023/09/26 13:37:52;;;;;;;;;;;17.80;99.90;;;;;;5075866;28;19955;-70
2023/09/26 13:40:19;;;;;;;;;;;17.80;99.90;;;;;;5074973;28;19908;-66
2023/09/26 13:42:45;;;;;;;;;;;17.80;99.90;;;;;;5075177;28;19931;-70
2023/09/26 13:45:12;;;;;;;;;;;17.80;99.90;;;;;;5089566;28;19920;-68
2023/09/26 13:47:39;;;;;;;;;;;17.70;99.90;;;;;;5092198;28;19920;-67
2023/09/26 13:50:06;;;;;;;;;;;17.70;99.90;;;;;;5091374;28;20365;-69
2023/09/26 13:52:33;;;;;;;;;;;17.70;99.90;;;;;;5095391;28;19904;-68
2023/09/26 13:54:59;;;;;;;;;;;17.80;99.90;;;;;;5095444;28;19919;-70
2023/09/26 13:57:26;;;;;;;;;;;17.70;99.90;;;;;;5077036;28;20388;-66
2023/09/26 13:59:52;;;;;;;;;;;17.70;99.90;;;;;;5082610;28;19915;-67
2023/09/26 14:02:19;;;;;;;;;;;17.60;99.90;;;;;;5095165;28;19908;-65
2023/09/26 14:04:46;;;;;;;;;;;17.60;99.90;;;;;;5083706;28;19920;-67
2023/09/26 14:07:12;;;;;;;;;;;17.60;99.90;;;;;;5095092;28;19946;-66
2023/09/26 14:09:39;;;;;;;;;;;17.50;99.90;;;;;;5094900;28;19908;-67
2023/09/26 14:12:06;;;;;;;;;;;17.40;99.90;;;;;;5095097;28;19915;-69
2023/09/26 14:14:34;;;;;;;;;;;17.30;99.90;;;;;;5086414;28;19926;-68
2023/09/26 14:17:00;;;;;;;;;;;17.30;99.90;;;;;;5093529;28;19912;-66